Time;durP1;ratioP1;P1;durP2;ratioP2;P2;SDS_P1;SDS_P2;PMS_P1;PMS_P2;Temp;Humidity;BMP_temperature;BMP_pressure;BME280_temperature;BME280_humidity;BME280_pressure;Samples;Min_cycle;Max_cycle;Signal;HPM_P1;HPM_P2
2021/05/24 00:00:18;;;;;;;;;;;8.30;99.90;;;;;;5095252;28;19920;-72
2021/05/24 00:02:45;;;;;;;;;;;8.40;99.90;;;;;;5095077;28;19920;-72
2021/05/24 00:05:12;;;;;;;;;;;8.40;99.90;;;;;;5095196;28;19920;-72
2021/05/24 00:07:38;;;;;;;;;;;8.40;99.90;;;;;;5095315;28;19920;-73
2021/05/24 00:10:05;;;;;;;;;;;8.40;99.90;;;;;;5095133;28;19920;-72
2021/05/24 00:12:32;;;;;;;;;;;8.30;99.90;;;;;;5094959;28;19931;-72
2021/05/24 00:14:58;;;;;;;;;;;8.40;99.90;;;;;;5095099;28;19920;-72
2021/05/24 00:17:25;;;;;;;;;;;8.30;99.90;;;;;;5095092;28;19920;-72
2021/05/24 00:19:51;;;;;;;;;;;8.30;99.90;;;;;;5095442;28;19924;-72
2021/05/24 00:22:17;;;;;;;;;;;8.30;99.90;;;;;;5096031;28;19992;-72
2021/05/24 00:24:44;;;;;;;;;;;8.30;99.90;;;;;;5098481;28;19989;-72
2021/05/24 00:27:11;;;;;;;;;;;8.20;99.90;;;;;;5099104;28;19919;-72
2021/05/24 00:29:39;;;;;;;;;;;8.30;99.90;;;;;;5099094;28;20014;-71
2021/05/24 00:32:05;;;;;;;;;;;8.20;99.90;;;;;;5099318;28;19920;-72
2021/05/24 00:34:31;;;;;;;;;;;8.20;99.90;;;;;;5099235;28;19931;-72
2021/05/24 00:36:58;;;;;;;;;;;8.20;99.90;;;;;;5099142;28;19945;-72
2021/05/24 00:39:24;;;;;;;;;;;8.20;99.90;;;;;;5099055;28;19969;-72
2021/05/24 00:41:50;;;;;;;;;;;8.30;99.90;;;;;;5099026;28;19919;-72
2021/05/24 00:44:17;;;;;;;;;;;8.20;99.90;;;;;;5098740;28;19942;-72
2021/05/24 00:46:44;;;;;;;;;;;8.20;99.90;;;;;;5098719;28;19938;-72
2021/05/24 00:49:10;;;;;;;;;;;8.20;99.90;;;;;;5098975;28;19920;-72
2021/05/24 00:51:37;;;;;;;;;;;8.20;99.90;;;;;;5098891;28;19920;-72
2021/05/24 00:54:03;;;;;;;;;;;8.20;99.90;;;;;;5098706;28;19950;-72
2021/05/24 00:56:30;;;;;;;;;;;8.20;99.90;;;;;;5098554;28;19920;-72
2021/05/24 00:58:56;;;;;;;;;;;8.20;99.90;;;;;;5098473;28;19926;-72
2021/05/24 01:01:22;;;;;;;;;;;8.20;99.90;;;;;;5098528;28;19989;-71
2021/05/24 01:03:51;;;;;;;;;;;8.20;99.90;;;;;;5098368;28;19919;-72
2021/05/24 01:06:19;;;;;;;;;;;8.20;99.90;;;;;;5098610;28;19920;-71
2021/05/24 01:08:45;;;;;;;;;;;8.10;99.90;;;;;;5098373;28;19924;-72
2021/05/24 01:11:11;;;;;;;;;;;8.10;99.90;;;;;;5098161;28;19926;-72
2021/05/24 01:13:38;;;;;;;;;;;8.10;99.90;;;;;;5098280;28;19920;-72
2021/05/24 01:16:04;;;;;;;;;;;8.10;99.90;;;;;;5098230;28;19931;-72
2021/05/24 01:18:31;;;;;;;;;;;8.10;99.90;;;;;;5098143;28;19920;-72
2021/05/24 01:20:58;;;;;;;;;;;8.10;99.90;;;;;;5098105;28;19930;-72
2021/05/24 01:23:27;;;;;;;;;;;8.10;99.90;;;;;;5098219;28;19984;-72
2021/05/24 01:25:53;;;;;;;;;;;8.00;99.90;;;;;;5098079;28;20363;-72
2021/05/24 01:28:21;;;;;;;;;;;8.00;99.90;;;;;;5097958;28;19920;-72
2021/05/24 01:30:47;;;;;;;;;;;8.00;99.90;;;;;;5098172;28;19920;-72
2021/05/24 01:33:13;;;;;;;;;;;8.00;99.90;;;;;;5097510;28;20252;-72
2021/05/24 01:35:40;;;;;;;;;;;8.00;99.90;;;;;;5098000;28;20306;-72
2021/05/24 01:38:09;;;;;;;;;;;8.00;99.90;;;;;;5097895;28;20309;-72
2021/05/24 01:40:36;;;;;;;;;;;8.00;99.90;;;;;;5097821;28;20304;-72
2021/05/24 01:43:04;;;;;;;;;;;8.00;99.90;;;;;;5097597;28;19927;-72
2021/05/24 01:45:30;;;;;;;;;;;8.00;99.90;;;;;;5097946;28;19931;-72
2021/05/24 01:47:56;;;;;;;;;;;7.90;99.90;;;;;;5097672;28;20279;-72
2021/05/24 01:50:23;;;;;;;;;;;8.00;99.90;;;;;;5097614;28;20275;-72
2021/05/24 01:52:49;;;;;;;;;;;7.90;99.90;;;;;;5097508;28;20329;-71
2021/05/24 01:55:16;;;;;;;;;;;8.00;99.90;;;;;;5097477;28;19936;-71
2021/05/24 01:57:43;;;;;;;;;;;8.00;99.90;;;;;;5097414;28;19966;-72
2021/05/24 02:00:10;;;;;;;;;;;8.00;99.90;;;;;;5097334;28;20340;-71
2021/05/24 02:02:38;;;;;;;;;;;7.90;99.90;;;;;;5097230;28;19931;-71
2021/05/24 02:05:05;;;;;;;;;;;7.90;99.90;;;;;;5097244;28;19920;-71
2021/05/24 02:07:31;;;;;;;;;;;7.80;99.90;;;;;;5097330;28;20313;-71
2021/05/24 02:09:57;;;;;;;;;;;7.90;99.90;;;;;;5097151;28;19942;-72
2021/05/24 02:12:24;;;;;;;;;;;7.90;99.90;;;;;;5096987;28;19953;-71
2021/05/24 02:14:51;;;;;;;;;;;7.90;99.90;;;;;;5097197;28;19920;-71
2021/05/24 02:17:18;;;;;;;;;;;7.90;99.90;;;;;;5097216;28;19927;-72
2021/05/24 02:19:45;;;;;;;;;;;7.90;99.90;;;;;;5097094;28;19924;-71
2021/05/24 02:22:12;;;;;;;;;;;7.90;99.90;;;;;;5097015;28;20267;-71
2021/05/24 02:24:38;;;;;;;;;;;7.80;99.90;;;;;;5096904;28;20393;-71
2021/05/24 02:27:05;;;;;;;;;;;7.90;99.90;;;;;;5096832;28;19927;-71
2021/05/24 02:29:31;;;;;;;;;;;7.80;99.90;;;;;;5096977;28;19924;-71
2021/05/24 02:31:58;;;;;;;;;;;7.80;99.90;;;;;;5096728;28;19956;-71
2021/05/24 02:34:25;;;;;;;;;;;7.80;99.90;;;;;;5096745;28;19924;-71
2021/05/24 02:36:52;;;;;;;;;;;7.90;99.90;;;;;;5096806;28;19920;-71
2021/05/24 02:39:18;;;;;;;;;;;7.90;99.90;;;;;;5096583;28;19930;-71
2021/05/24 02:41:44;;;;;;;;;;;7.90;99.90;;;;;;5096783;28;20014;-71
2021/05/24 02:44:11;;;;;;;;;;;7.90;99.90;;;;;;5096121;28;19920;-72
2021/05/24 02:46:37;;;;;;;;;;;7.80;99.90;;;;;;5096133;28;19931;-72
2021/05/24 02:49:05;;;;;;;;;;;7.80;99.90;;;;;;5096437;28;19934;-72
2021/05/24 02:51:31;;;;;;;;;;;7.80;99.90;;;;;;5096609;28;20264;-71
2021/05/24 02:53:58;;;;;;;;;;;7.80;99.90;;;;;;5096379;28;19920;-71
2021/05/24 02:56:24;;;;;;;;;;;7.70;99.90;;;;;;5096272;28;19924;-71
2021/05/24 02:58:50;;;;;;;;;;;7.70;99.90;;;;;;5096499;28;19938;-71
2021/05/24 03:01:16;;;;;;;;;;;7.70;99.90;;;;;;5096386;28;19920;-71
2021/05/24 03:03:43;;;;;;;;;;;7.60;99.90;;;;;;5096200;28;19920;-71
2021/05/24 03:06:10;;;;;;;;;;;7.60;99.90;;;;;;5096261;28;19996;-71
2021/05/24 03:08:36;;;;;;;;;;;7.50;99.90;;;;;;5096116;28;19928;-71
2021/05/24 03:11:03;;;;;;;;;;;7.40;99.90;;;;;;5096014;28;19920;-71
2021/05/24 03:13:29;;;;;;;;;;;7.40;99.90;;;;;;5096160;28;19920;-71
2021/05/24 03:15:55;;;;;;;;;;;7.40;99.90;;;;;;5096228;28;19927;-71
2021/05/24 03:18:22;;;;;;;;;;;7.40;99.90;;;;;;5096219;28;19920;-72
2021/05/24 03:20:48;;;;;;;;;;;7.30;99.90;;;;;;5095937;28;19943;-71
2021/05/24 03:23:15;;;;;;;;;;;7.30;99.90;;;;;;5095719;28;19922;-71
2021/05/24 03:25:42;;;;;;;;;;;7.30;99.90;;;;;;5095784;28;19942;-72
2021/05/24 03:28:08;;;;;;;;;;;7.30;99.90;;;;;;5095708;28;19930;-71
2021/05/24 03:30:34;;;;;;;;;;;7.20;99.90;;;;;;5095838;28;19920;-71
2021/05/24 03:33:01;;;;;;;;;;;7.20;99.90;;;;;;5095770;28;19920;-72
2021/05/24 03:35:27;;;;;;;;;;;7.10;99.90;;;;;;5095691;28;19920;-71
2021/05/24 03:37:53;;;;;;;;;;;7.10;99.90;;;;;;5095581;28;19996;-72
2021/05/24 03:40:20;;;;;;;;;;;7.10;99.90;;;;;;5095744;28;20339;-71
2021/05/24 03:42:47;;;;;;;;;;;7.10;99.90;;;;;;5095427;28;19920;-71
2021/05/24 03:45:13;;;;;;;;;;;7.00;99.90;;;;;;5095607;28;19923;-71
2021/05/24 03:47:40;;;;;;;;;;;7.00;99.90;;;;;;5095293;28;20241;-72
2021/05/24 03:50:06;;;;;;;;;;;7.00;99.90;;;;;;5095438;28;20349;-72
2021/05/24 03:52:33;;;;;;;;;;;7.00;99.90;;;;;;5095354;28;19973;-72
2021/05/24 03:54:59;;;;;;;;;;;7.00;99.90;;;;;;5095580;28;19920;-72
2021/05/24 03:57:26;;;;;;;;;;;7.00;99.90;;;;;;5095156;28;20337;-71
2021/05/24 03:59:53;;;;;;;;;;;6.90;99.90;;;;;;5095338;28;20385;-71
2021/05/24 04:02:19;;;;;;;;;;;6.90;99.90;;;;;;5095128;28;19930;-71
2021/05/24 04:04:46;;;;;;;;;;;6.90;99.90;;;;;;5095152;28;19924;-71
2021/05/24 04:07:19;;;;;;;;;;;6.90;99.90;;;;;;5095200;28;19920;-71
2021/05/24 04:09:46;;;;;;;;;;;6.80;99.90;;;;;;5095191;28;19968;-71
2021/05/24 04:12:13;;;;;;;;;;;6.80;99.90;;;;;;5095070;28;19950;-71
2021/05/24 04:14:41;;;;;;;;;;;6.80;99.90;;;;;;5095084;28;20390;-71
2021/05/24 04:17:08;;;;;;;;;;;6.80;99.90;;;;;;5095152;28;19920;-71
2021/05/24 04:19:34;;;;;;;;;;;6.80;99.90;;;;;;5094987;28;19920;-71
2021/05/24 04:22:01;;;;;;;;;;;6.80;99.90;;;;;;5095012;28;19924;-71
2021/05/24 04:24:27;;;;;;;;;;;6.80;99.90;;;;;;5095158;28;19920;-71
2021/05/24 04:26:53;;;;;;;;;;;6.80;99.90;;;;;;5095196;28;19924;-71
2021/05/24 04:29:19;;;;;;;;;;;6.80;99.90;;;;;;5095259;28;19920;-71
2021/05/24 04:31:47;;;;;;;;;;;6.80;99.90;;;;;;5095033;28;20274;-71
2021/05/24 04:34:13;;;;;;;;;;;6.80;99.90;;;;;;5094870;28;19931;-71
2021/05/24 04:36:39;;;;;;;;;;;6.80;99.90;;;;;;5094853;28;19920;-71
2021/05/24 04:39:06;;;;;;;;;;;6.80;99.90;;;;;;5094864;28;19920;-71
2021/05/24 04:41:32;;;;;;;;;;;6.80;99.90;;;;;;5094853;28;20348;-71
2021/05/24 04:44:10;;;;;;;;;;;6.80;99.90;;;;;;5094923;28;20259;-71
2021/05/24 04:46:36;;;;;;;;;;;6.80;99.90;;;;;;5094924;28;19920;-72
2021/05/24 04:49:04;;;;;;;;;;;6.80;99.90;;;;;;5094670;28;19931;-71
2021/05/24 04:51:30;;;;;;;;;;;6.80;99.90;;;;;;5094793;28;20328;-71
2021/05/24 04:53:56;;;;;;;;;;;6.80;99.90;;;;;;5094774;28;19931;-71
2021/05/24 04:56:23;;;;;;;;;;;6.80;99.90;;;;;;5094764;28;19926;-71
2021/05/24 04:58:49;;;;;;;;;;;6.80;99.90;;;;;;5094826;28;19920;-71
2021/05/24 05:01:15;;;;;;;;;;;6.80;99.90;;;;;;5094747;28;19924;-71
2021/05/24 05:03:41;;;;;;;;;;;6.80;99.90;;;;;;5094541;28;19927;-71
2021/05/24 05:06:09;;;;;;;;;;;6.80;99.90;;;;;;5094613;28;19930;-71
2021/05/24 05:08:35;;;;;;;;;;;6.90;99.90;;;;;;5096476;28;20274;-71
2021/05/24 05:11:02;;;;;;;;;;;6.90;99.90;;;;;;5098450;28;19920;-71
2021/05/24 05:13:28;;;;;;;;;;;6.90;99.90;;;;;;5098302;28;19920;-71
2021/05/24 05:15:54;;;;;;;;;;;7.00;99.90;;;;;;5098298;28;20019;-71
2021/05/24 05:18:21;;;;;;;;;;;7.00;99.90;;;;;;5098272;28;19930;-72
2021/05/24 05:20:47;;;;;;;;;;;7.00;99.90;;;;;;5098433;28;19930;-71
2021/05/24 05:23:14;;;;;;;;;;;7.00;99.90;;;;;;5098226;28;19934;-71
2021/05/24 05:25:41;;;;;;;;;;;7.00;99.90;;;;;;5098063;28;20359;-71
2021/05/24 05:28:07;;;;;;;;;;;7.00;99.90;;;;;;5097983;28;19920;-71
2021/05/24 05:30:34;;;;;;;;;;;7.10;99.90;;;;;;5098063;28;19924;-71
2021/05/24 05:33:00;;;;;;;;;;;7.10;99.90;;;;;;5097872;28;19920;-71
2021/05/24 05:35:26;;;;;;;;;;;7.10;99.90;;;;;;5098111;28;19920;-71
2021/05/24 05:37:53;;;;;;;;;;;7.10;99.90;;;;;;5098089;28;19919;-72
2021/05/24 05:40:20;;;;;;;;;;;7.20;99.90;;;;;;5097852;28;19920;-71
2021/05/24 05:42:46;;;;;;;;;;;7.30;99.90;;;;;;5097730;28;20014;-72
2021/05/24 05:45:13;;;;;;;;;;;7.30;99.90;;;;;;5097659;28;20401;-72
2021/05/24 05:47:39;;;;;;;;;;;7.40;99.90;;;;;;5097475;28;20241;-72
2021/05/24 05:50:06;;;;;;;;;;;7.50;99.90;;;;;;5097632;28;19920;-72
2021/05/24 05:52:34;;;;;;;;;;;7.60;99.90;;;;;;5097575;28;19930;-72
2021/05/24 05:55:00;;;;;;;;;;;7.70;99.90;;;;;;5097713;28;19920;-72
2021/05/24 05:57:27;;;;;;;;;;;7.80;99.90;;;;;;5097530;28;19920;-72
2021/05/24 05:59:54;;;;;;;;;;;7.90;99.90;;;;;;5097475;28;20362;-72
2021/05/24 06:02:20;;;;;;;;;;;8.00;99.90;;;;;;5097360;28;19920;-72
2021/05/24 06:04:46;;;;;;;;;;;8.10;99.90;;;;;;5097383;28;19920;-72
2021/05/24 06:07:13;;;;;;;;;;;8.20;99.90;;;;;;5097445;28;19931;-72
2021/05/24 06:09:39;;;;;;;;;;;8.30;99.90;;;;;;5097360;28;19947;-72
2021/05/24 06:12:06;;;;;;;;;;;8.40;99.90;;;;;;5096142;28;19920;-72
2021/05/24 06:14:33;;;;;;;;;;;8.50;99.90;;;;;;5097134;28;19920;-72
2021/05/24 06:17:00;;;;;;;;;;;8.60;99.90;;;;;;5097060;28;19924;-72
2021/05/24 06:19:26;;;;;;;;;;;8.70;99.90;;;;;;5097255;28;20252;-72
2021/05/24 06:21:52;;;;;;;;;;;8.90;99.90;;;;;;5097001;28;19928;-72
2021/05/24 06:24:19;;;;;;;1.80;0.93;;;9.10;99.90;;;;;;5095543;28;20425;-72
2021/05/24 06:26:45;;;;;;;0.88;0.60;;;9.40;99.90;;;;;;5096467;28;20392;-70
2021/05/24 06:29:12;;;;;;;1.92;0.50;;;9.80;99.90;;;;;;5096403;28;20044;-70
2021/05/24 06:31:42;;;;;;;6.13;1.27;;;10.30;99.90;;;;;;5096327;28;20056;-72
2021/05/24 06:34:09;;;;;;;2.83;0.70;;;11.00;99.90;;;;;;5096567;28;20044;-73
2021/05/24 06:36:35;;;;;;;4.18;0.75;;;12.10;99.90;;;;;;5096425;28;20047;-71
2021/05/24 06:39:02;;;;;;;4.55;1.17;;;13.50;99.90;;;;;;5096209;28;20044;-73
2021/05/24 06:41:29;;;;;;;2.95;0.52;;;14.80;99.90;;;;;;5096180;28;20051;-73
2021/05/24 06:43:55;;;;;;;1.80;0.60;;;15.60;99.90;;;;;;5096058;28;20128;-73
2021/05/24 06:46:22;;;;;;;4.18;0.70;;;15.30;99.90;;;;;;5096338;28;20048;-73
2021/05/24 06:48:49;;;;;;;3.65;0.93;;;14.60;99.90;;;;;;5096168;28;20056;-73
2021/05/24 06:51:16;;;;;;;2.92;0.68;;;13.70;99.90;;;;;;5095954;28;20044;-72
2021/05/24 06:53:42;;;;;;;;;;;13.00;99.90;;;;;;5096322;28;20077;-70
2021/05/24 06:56:09;;;;;;;3.28;0.57;;;12.40;99.90;;;;;;5095865;28;20073;-70
2021/05/24 06:58:35;;;;;;;2.67;0.60;;;12.00;99.90;;;;;;5095777;28;20452;-70
2021/05/24 07:01:02;;;;;;;3.80;0.75;;;11.90;99.90;;;;;;5096035;28;20140;-70
2021/05/24 07:03:29;;;;;;;1.85;0.50;;;12.10;99.90;;;;;;5095868;28;20048;-70
2021/05/24 07:05:56;;;;;;;1.67;0.43;;;12.80;99.90;;;;;;5095724;28;20048;-72
2021/05/24 07:08:23;;;;;;;5.50;0.70;;;13.30;99.90;;;;;;5095708;28;20059;-72
2021/05/24 07:10:50;;;;;;;1.50;0.80;;;14.50;99.90;;;;;;5095432;28;20467;-75
2021/05/24 07:13:16;;;;;;;3.03;0.80;;;16.30;99.90;;;;;;5095561;28;20367;-72
2021/05/24 07:15:44;;;;;;;45.80;20.27;;;18.10;99.90;;;;;;5095524;28;20121;-71
2021/05/24 07:18:10;;;;;;;9.30;4.43;;;19.60;99.90;;;;;;5095454;28;20444;-73
2021/05/24 07:20:37;;;;;;;4.05;1.10;;;20.70;99.90;;;;;;5095460;28;20052;-73
2021/05/24 07:23:04;;;;;;;2.92;0.70;;;21.50;99.90;;;;;;5095432;28;20052;-72
2021/05/24 07:25:31;;;;;;;3.53;0.82;;;22.30;99.90;;;;;;5095338;28;20048;-73
2021/05/24 07:27:57;;;;;;;3.75;0.90;;;23.40;99.90;;;;;;5095316;28;20051;-74
2021/05/24 07:30:24;;;;;;;;;;;24.10;70.80;;;;;;5095551;28;20426;-74
2021/05/24 07:32:50;;;;;;;2.28;0.80;;;24.30;88.20;;;;;;5094977;28;20460;-74
2021/05/24 07:35:17;;;;;;;2.45;0.35;;;25.10;97.10;;;;;;5095367;28;20055;-74
2021/05/24 07:37:43;;;;;;;3.63;0.90;;;25.40;73.70;;;;;;5095198;28;20456;-74
2021/05/24 07:40:12;;;;;;;1.67;0.75;;;25.50;65.60;;;;;;5095221;28;20120;-74
2021/05/24 07:42:39;;;;;;;2.17;0.43;;;26.30;79.80;;;;;;5094914;28;20095;-74
2021/05/24 07:45:07;;;;;;;1.15;0.30;;;27.20;78.80;;;;;;5095276;28;20044;-74
2021/05/24 07:47:34;;;;;;;2.92;0.88;;;27.30;59.20;;;;;;5094942;28;20055;-74
2021/05/24 07:50:00;;;;;;;2.55;0.80;;;26.80;57.50;;;;;;5095173;28;20391;-74
2021/05/24 07:52:27;;;;;;;3.88;0.60;;;26.20;62.80;;;;;;5094877;28;20052;-74
2021/05/24 07:54:54;;;;;;;2.30;0.57;;;25.80;60.70;;;;;;5095060;28;20478;-74
2021/05/24 07:57:21;;;;;;;3.75;0.73;;;25.70;64.30;;;;;;5094898;28;20048;-74
2021/05/24 07:59:48;;;;;;;4.93;0.90;;;26.20;72.00;;;;;;5095090;28;20048;-74
2021/05/24 08:02:14;;;;;;;2.80;0.45;;;26.80;56.20;;;;;;5094815;28;20047;-74
2021/05/24 08:04:41;;;;;;;3.40;0.82;;;27.30;58.20;;;;;;5094731;28;20050;-74
2021/05/24 08:07:07;;;;;;;2.80;0.73;;;28.10;59.00;;;;;;5094834;28;20060;-75
2021/05/24 08:09:34;;;;;;;3.80;0.50;;;28.50;52.70;;;;;;5094725;28;20054;-75
2021/05/24 08:12:01;;;;;;;4.47;0.68;;;28.60;52.10;;;;;;5094601;28;20105;-75
2021/05/24 08:14:28;;;;;;;2.28;0.40;;;28.40;52.10;;;;;;5094685;28;20046;-75
2021/05/24 08:16:55;;;;;;;3.35;0.57;;;28.20;52.90;;;;;;5078072;28;20487;-75
2021/05/24 08:19:22;;;;;;;5.25;0.70;;;27.80;52.90;;;;;;5073930;28;20048;-75
2021/05/24 08:21:49;;;;;;;2.88;0.65;;;26.30;53.70;;;;;;5074119;28;20056;-74
2021/05/24 08:24:16;;;;;;;1.77;0.63;;;24.30;58.00;;;;;;5073935;28;20137;-74
2021/05/24 08:26:42;;;;;;;6.97;1.08;;;22.50;66.50;;;;;;5074317;28;20460;-74
2021/05/24 08:29:09;;;;;;;3.40;0.70;;;20.90;76.40;;;;;;5074406;28;20059;-74
2021/05/24 08:31:37;;;;;;;4.10;1.00;;;19.60;93.50;;;;;;5074387;28;20049;-74
2021/05/24 08:34:04;;;;;;;1.30;0.45;;;18.40;98.80;;;;;;5074411;28;20045;-74
2021/05/24 08:36:30;;;;;;;3.72;1.02;;;17.60;99.90;;;;;;5074250;28;20372;-74
2021/05/24 08:38:57;;;;;;;2.13;0.60;;;17.00;99.90;;;;;;5074201;28;20044;-74
2021/05/24 08:41:23;;;;;;;3.30;0.88;;;16.60;99.90;;;;;;5074608;28;20052;-74
2021/05/24 08:43:50;;;;;;;5.50;0.90;;;16.20;99.90;;;;;;5076674;28;20045;-73
2021/05/24 08:46:17;;;;;;;3.95;0.75;;;15.80;99.90;;;;;;5088868;28;20052;-73
2021/05/24 08:48:44;;;;;;;4.00;0.73;;;15.50;99.90;;;;;;5098485;28;20105;-74
2021/05/24 08:51:11;;;;;;;2.97;0.80;;;15.10;99.90;;;;;;5098356;28;20052;-74
2021/05/24 08:53:38;;;;;;;5.78;0.77;;;14.80;99.90;;;;;;5098245;28;20375;-74
2021/05/24 08:56:05;;;;;;;2.40;0.73;;;14.50;99.90;;;;;;5098254;28;20063;-74
2021/05/24 08:58:32;;;;;;;2.78;0.88;;;14.30;99.90;;;;;;5098158;28;20052;-74
2021/05/24 09:00:58;;;;;;;2.80;1.15;;;14.20;99.90;;;;;;5098312;28;20050;-74
2021/05/24 09:03:25;;;;;;;4.57;1.00;;;14.20;99.90;;;;;;5098082;28;20074;-74
2021/05/24 09:05:53;;;;;;;13.20;1.25;;;14.20;99.90;;;;;;5098098;28;20483;-74
2021/05/24 09:08:20;;;;;;;19.10;2.03;;;14.20;99.90;;;;;;5097977;28;20185;-73
2021/05/24 09:10:47;;;;;;;2.00;1.17;;;14.10;99.90;;;;;;5097697;28;20066;-74
2021/05/24 09:13:14;;;;;;;3.92;1.02;;;14.10;99.90;;;;;;5097881;28;20052;-74
2021/05/24 09:15:42;;;;;;;3.40;0.70;;;13.90;99.90;;;;;;5097762;28;20406;-73
2021/05/24 09:18:10;;;;;;;3.42;0.75;;;13.80;99.90;;;;;;5095388;28;20063;-74
2021/05/24 09:20:37;;;;;;;0.05;0.05;;;13.70;99.90;;;;;;5094717;28;20419;-74
2021/05/24 09:23:23;;;;;;;6.50;2.95;;;13.50;99.90;;;;;;5097671;28;20445;-73
2021/05/24 09:26:01;;;;;;;3.65;1.08;;;13.40;99.90;;;;;;5097793;28;20059;-74
2021/05/24 09:28:41;;;;;;;4.35;1.15;;;13.30;99.90;;;;;;5097861;28;20047;-73
2021/05/24 09:31:13;;;;;;;4.40;0.85;;;13.30;99.90;;;;;;5097488;28;20052;-72
2021/05/24 09:33:40;;;;;;;5.10;0.88;;;13.30;99.90;;;;;;5097736;28;20368;-72
2021/05/24 09:36:07;;;;;;;7.63;1.20;;;13.20;99.90;;;;;;5097701;28;20052;-72
2021/05/24 09:38:36;;;;;;;8.02;1.35;;;13.20;99.90;;;;;;5097595;28;20076;-74
2021/05/24 09:41:05;;;;;;;3.53;0.88;;;13.20;99.90;;;;;;5097335;28;20052;-73
2021/05/24 09:43:32;;;;;;;2.67;0.90;;;13.30;99.90;;;;;;5097336;28;20091;-73
2021/05/24 09:46:13;;;;;;;3.97;1.17;;;13.40;99.90;;;;;;5097061;28;20055;-73
2021/05/24 09:48:40;;;;;;;3.90;0.95;;;13.30;99.90;;;;;;5097048;28;20052;-71
2021/05/24 09:51:07;;;;;;;2.83;1.05;;;13.40;99.90;;;;;;5097360;28;20055;-72
2021/05/24 09:53:35;;;;;;;9.10;1.23;;;13.50;99.90;;;;;;5096569;28;20459;-73
2021/05/24 09:56:06;;;;;;;5.32;0.80;;;13.60;99.90;;;;;;5097053;28;20063;-72
2021/05/24 09:58:33;;;;;;;1.25;0.45;;;13.50;99.90;;;;;;5096998;28;20058;-73
2021/05/24 10:01:13;;;;;;;3.95;0.80;;;13.40;99.90;;;;;;5097029;28;20052;-73
2021/05/24 10:03:41;;;;;;;2.08;0.70;;;13.20;99.90;;;;;;5096912;28;20040;-72
2021/05/24 10:06:08;;;;;;;2.38;0.63;;;13.10;99.90;;;;;;5096818;28;20440;-71
2021/05/24 10:08:35;;;;;;;2.38;0.35;;;13.00;99.90;;;;;;5096862;28;20504;-73
2021/05/24 10:11:02;;;;;;;2.70;0.55;;;12.80;99.90;;;;;;5096545;28;20078;-72
2021/05/24 10:13:28;;;;;;;2.03;0.85;;;12.60;99.90;;;;;;5096898;28;20108;-72
2021/05/24 10:16:00;;;;;;;4.43;1.80;;;12.50;99.90;;;;;;5096721;28;20066;-73
2021/05/24 10:18:27;;;;;;;3.75;1.92;;;12.30;99.90;;;;;;5096623;28;20044;-73
2021/05/24 10:20:53;;;;;;;2.55;1.52;;;12.20;99.90;;;;;;5096575;28;20047;-71
2021/05/24 10:23:21;;;;;;;3.72;2.45;;;12.00;99.90;;;;;;5096659;28;20048;-72
2021/05/24 10:25:48;;;;;;;8.25;1.80;;;11.90;99.90;;;;;;5096589;28;20051;-71
2021/05/24 10:28:15;;;;;;;3.25;1.52;;;11.80;99.90;;;;;;5096393;28;20056;-74
2021/05/24 10:30:42;;;;;;;4.70;1.50;;;11.80;99.90;;;;;;5096572;28;20055;-73
2021/05/24 10:33:12;;;;;;;4.70;1.02;;;11.80;99.90;;;;;;5096575;28;20048;-73
2021/05/24 10:35:40;;;;;;;2.03;1.02;;;11.90;99.90;;;;;;5096258;28;20162;-73
2021/05/24 10:38:29;;;;;;;5.10;1.38;;;11.90;99.90;;;;;;5096222;28;20116;-73
2021/05/24 10:41:04;;;;;;;2.25;1.25;;;12.00;99.90;;;;;;5096441;28;20075;-73
2021/05/24 10:43:44;;;;;;;1.80;1.25;;;12.10;99.90;;;;;;5096024;28;20131;-73
2021/05/24 10:46:32;;;;;;;3.08;1.17;;;12.20;99.90;;;;;;5095709;28;20052;-74
2021/05/24 10:49:00;;;;;;;;;;;12.40;99.90;;;;;;5096524;28;20387;-73
2021/05/24 10:51:41;;;;;;;;;;;12.50;99.90;;;;;;5096663;28;19997;-74
2021/05/24 10:54:08;;;;;;;;;;;12.70;99.90;;;;;;5096215;28;19920;-73
2021/05/24 10:56:35;;;;;;;;;;;12.80;99.90;;;;;;5096347;28;19993;-73
2021/05/24 10:59:02;;;;;;;;;;;12.90;99.90;;;;;;5096168;28;19928;-74
2021/05/24 11:01:28;;;;;;;;;;;12.90;99.90;;;;;;5096421;28;20030;-74
2021/05/24 11:04:10;;;;;;;;;;;13.00;99.90;;;;;;5096281;28;19920;-74
2021/05/24 11:06:37;;;;;;;;;;;13.10;99.90;;;;;;5095629;28;20232;-73
2021/05/24 11:09:04;;;;;;;;;;;13.10;99.90;;;;;;5096174;28;19920;-74
2021/05/24 11:11:31;;;;;;;;;;;13.20;99.90;;;;;;5095819;28;20412;-74
2021/05/24 11:13:58;;;;;;;;;;;13.10;99.90;;;;;;5096020;28;19919;-73
2021/05/24 11:16:25;;;;;;;;;;;13.10;99.90;;;;;;5095763;28;20263;-74
2021/05/24 11:18:52;;;;;;;;;;;13.00;99.90;;;;;;5096037;28;20007;-74
2021/05/24 11:21:25;;;;;;;;;;;13.10;99.90;;;;;;5096001;28;19930;-74
2021/05/24 11:26:36;;;;;;;;;;;13.10;99.90;;;;;;5085087;28;19920;-74
2021/05/24 11:29:07;;;;;;;;;;;13.20;99.90;;;;;;5095996;28;20022;-74
2021/05/24 11:31:57;;;;;;;;;;;13.20;99.90;;;;;;5095591;28;19931;-74
2021/05/24 11:34:27;;;;;;;;;;;13.30;99.90;;;;;;5080385;28;19924;-74
2021/05/24 11:36:53;;;;;;;;;;;13.40;99.90;;;;;;5095616;28;19935;-73
2021/05/24 11:39:21;;;;;;;;;;;13.50;99.90;;;;;;5095481;28;19924;-74
2021/05/24 11:41:55;;;;;;;;;;;13.50;99.90;;;;;;5076171;28;19929;-74
2021/05/24 11:44:25;;;;;;;;;;;13.60;99.90;;;;;;5074892;28;19924;-73
2021/05/24 11:46:53;;;;;;;;;;;13.60;99.90;;;;;;5090645;28;19985;-73
2021/05/24 11:49:20;;;;;;;;;;;13.60;99.90;;;;;;5095442;28;19924;-73
2021/05/24 11:51:48;;;;;;;;;;;13.70;99.90;;;;;;5095593;28;20284;-73
2021/05/24 11:54:15;;;;;;;;;;;13.70;99.90;;;;;;5095334;28;19924;-73
2021/05/24 11:56:43;;;;;;;;;;;13.80;99.90;;;;;;5095325;28;20275;-73
2021/05/24 11:59:11;;;;;;;;;;;13.80;99.90;;;;;;5095341;28;19936;-73
2021/05/24 12:01:38;;;;;;;;;;;13.80;99.90;;;;;;5094718;28;19924;-73
2021/05/24 12:04:05;;;;;;;;;;;13.80;99.90;;;;;;5094786;28;19935;-73
2021/05/24 12:06:39;;;;;;;;;;;13.80;99.90;;;;;;5094717;28;19935;-73
2021/05/24 12:09:06;;;;;;;;;;;13.80;99.90;;;;;;5095471;28;19944;-73
2021/05/24 12:11:32;;;;;;;;;;;13.70;99.90;;;;;;5094987;28;19924;-73
2021/05/24 12:13:59;;;;;;;;;;;13.70;99.90;;;;;;5095027;28;19973;-73
2021/05/24 12:16:26;;;;;;;;;;;13.60;99.90;;;;;;5095165;28;19928;-73
2021/05/24 12:18:53;;;;;;;;;;;13.60;99.90;;;;;;5101756;28;20366;-73
2021/05/24 12:21:32;;;;;;;;;;;13.60;99.90;;;;;;5102008;28;19924;-73
2021/05/24 12:23:59;;;;;;;;;;;13.60;99.90;;;;;;5101868;28;19951;-73
2021/05/24 12:26:25;;;;;;;;;;;13.50;99.90;;;;;;5101775;28;19928;-73
2021/05/24 12:28:52;;;;;;;;;;;13.50;99.90;;;;;;5101865;28;19924;-73
2021/05/24 12:31:18;;;;;;;;;;;13.40;99.90;;;;;;5101776;28;19928;-73
2021/05/24 12:33:45;;;;;;;;;;;13.40;99.90;;;;;;5102073;28;20247;-73
2021/05/24 12:36:14;;;;;;;;;;;13.40;99.90;;;;;;5101703;28;19924;-72
2021/05/24 12:38:45;;;;;;;;;;;13.30;99.90;;;;;;5101779;28;20023;-72
2021/05/24 12:41:11;;;;;;;;;;;13.30;99.90;;;;;;5102105;28;19924;-73
2021/05/24 12:43:47;;;;;;;;;;;13.30;99.90;;;;;;5101552;28;19924;-73
2021/05/24 12:46:13;;;;;;;;;;;13.40;99.90;;;;;;5102435;28;19925;-73
2021/05/24 12:48:40;;;;;;;;;;;13.30;99.90;;;;;;5100752;28;20430;-72
2021/05/24 12:51:13;;;;;;;;;;;13.30;99.90;;;;;;5101162;28;19939;-74
2021/05/24 12:53:40;;;;;;;;;;;13.30;99.90;;;;;;5101584;28;19931;-74
2021/05/24 12:56:07;;;;;;;;;;;13.20;99.90;;;;;;5101440;28;19928;-76
2021/05/24 12:58:36;;;;;;;3.10;0.82;;;13.20;99.90;;;;;;5100570;28;20732;-75
2021/05/24 13:01:03;;;;;;;0.80;0.50;;;13.10;99.90;;;;;;5101288;28;20060;-74
2021/05/24 13:03:45;;;;;;;4.20;0.68;;;13.00;99.90;;;;;;5101190;28;20074;-74
2021/05/24 13:06:14;;;;;;;1.60;0.65;;;13.00;99.90;;;;;;5101326;28;20047;-74
2021/05/24 13:08:50;;;;;;;2.60;0.52;;;13.00;99.90;;;;;;5100893;28;20075;-74
2021/05/24 13:11:18;;;;;;;1.75;0.50;;;13.00;99.90;;;;;;5100916;28;20047;-74
2021/05/24 13:13:44;;;;;;;2.53;0.77;;;12.90;99.90;;;;;;5101212;28;20044;-74
2021/05/24 13:16:15;;;;;;;3.78;0.70;;;12.90;99.90;;;;;;5101132;28;20051;-74
2021/05/24 13:18:52;;;;;;;1.73;0.50;;;12.90;99.90;;;;;;5100979;28;20044;-74
2021/05/24 13:21:42;;;;;;;2.28;0.57;;;12.90;99.90;;;;;;5100956;28;20099;-73
2021/05/24 13:24:21;;;;;;;1.33;0.90;;;12.90;99.90;;;;;;5101043;28;20454;-74
2021/05/24 13:29:41;;;;;;;2.78;0.50;;;12.90;99.90;;;;;;5084958;28;20113;-75
2021/05/24 13:32:21;;;;;;;1.80;0.47;;;13.00;99.90;;;;;;5097624;28;20135;-72
2021/05/24 13:34:49;;;;;;;0.80;0.43;;;13.00;99.90;;;;;;5097780;28;20044;-71
2021/05/24 13:37:17;;;;;;;0.73;0.40;;;13.10;99.90;;;;;;5097482;28;20056;-72
2021/05/24 13:39:44;;;;;;;2.00;0.57;;;13.10;99.90;;;;;;5097400;28;20045;-70
2021/05/24 13:42:10;;;;;;;0.00;0.00;;;13.20;99.90;;;;;;5097754;28;20135;-72
2021/05/24 13:44:37;;;;;;;3.42;0.70;;;13.10;99.90;;;;;;5097300;28;20444;-72
2021/05/24 13:47:04;;;;;;;;;;;13.10;99.90;;;;;;5097773;28;20044;-72
2021/05/24 13:49:32;;;;;;;;;;;13.20;99.90;;;;;;5097434;28;20393;-72
2021/05/24 13:51:59;;;;;;;;;;;13.30;99.90;;;;;;5097667;28;19934;-72
2021/05/24 13:54:27;;;;;;;;;;;13.30;99.90;;;;;;5097577;28;20384;-71